createdAt,value
2019-01-31T00:02:23.208Z,12.85
2019-01-31T00:05:35.160Z,12.47
2019-01-31T00:08:45.174Z,11.85
2019-01-31T00:11:38.771Z,13.28
2019-01-31T00:14:24.674Z,13.65
2019-01-31T00:17:34.350Z,15.55
2019-01-31T00:20:35.252Z,14.58
2019-01-31T00:23:51.897Z,14.07
2019-01-31T00:26:38.043Z,13.32
2019-01-31T00:29:19.351Z,13.50
2019-01-31T00:32:31.195Z,15.20
2019-01-31T00:35:38.708Z,11.55
2019-01-31T00:38:43.654Z,13.88
2019-01-31T00:41:40.865Z,16.27
2019-01-31T00:44:34.661Z,24.72
2019-01-31T00:47:58.632Z,26.62
2019-01-31T00:51:00.657Z,25.08
2019-01-31T00:54:18.488Z,25.12
2019-01-31T00:57:18.383Z,21.40
2019-01-31T01:00:10.063Z,21.80
2019-01-31T01:03:09.968Z,18.35
2019-01-31T01:06:27.763Z,15.95
2019-01-31T01:09:23.089Z,16.23
2019-01-31T01:12:21.522Z,13.45
2019-01-31T01:15:30.681Z,13.55
2019-01-31T01:18:44.257Z,15.28
2019-01-31T01:21:55.989Z,11.43
2019-01-31T01:25:08.956Z,10.95
2019-01-31T01:28:24.156Z,11.70
2019-01-31T01:31:26.261Z,12.33
2019-01-31T01:34:37.213Z,11.20
2019-01-31T01:37:38.359Z,11.40
2019-01-31T01:40:33.808Z,13.68
2019-01-31T01:43:34.035Z,13.78
2019-01-31T01:46:51.719Z,12.90
2019-01-31T01:49:50.225Z,14.00
2019-01-31T01:52:42.940Z,17.50
2019-01-31T01:56:10.184Z,13.45
2019-01-31T01:59:12.723Z,12.33
2019-01-31T02:02:28.292Z,13.45
2019-01-31T02:05:34.660Z,12.82
2019-01-31T02:08:27.544Z,14.53
2019-01-31T02:11:48.313Z,14.10
2019-01-31T02:15:04.316Z,13.18
2019-01-31T02:18:06.542Z,12.93
2019-01-31T02:21:17.708Z,14.45
2019-01-31T02:24:19.372Z,11.97
2019-01-31T02:27:03.247Z,10.70
2019-01-31T02:30:18.300Z,13.03
2019-01-31T02:33:30.640Z,13.22
2019-01-31T02:37:01.046Z,12.35
2019-01-31T02:40:19.946Z,11.80
2019-01-31T02:43:21.646Z,13.85
2019-01-31T02:46:29.404Z,13.40
2019-01-31T02:49:44.684Z,12.53
2019-01-31T02:52:51.773Z,11.40
2019-01-31T02:55:37.512Z,13.45
2019-01-31T02:58:43.513Z,14.55
2019-01-31T03:01:55.547Z,15.05
2019-01-31T03:05:03.425Z,14.05
2019-01-31T03:08:00.446Z,15.55
2019-01-31T03:10:44.919Z,13.68
2019-01-31T03:13:52.229Z,16.02
2019-01-31T03:16:53.522Z,15.55
2019-01-31T03:19:53.807Z,15.53
2019-01-31T03:23:08.976Z,14.85
2019-01-31T03:25:46.977Z,14.50
2019-01-31T03:29:02.380Z,15.32
2019-01-31T03:31:54.550Z,15.25
2019-01-31T03:35:01.223Z,21.02
2019-01-31T03:38:07.479Z,18.07
2019-01-31T03:41:22.716Z,18.27
2019-01-31T03:44:36.043Z,18.32
2019-01-31T03:47:38.534Z,17.73
2019-01-31T03:50:42.058Z,21.00
2019-01-31T03:54:03.398Z,21.87
2019-01-31T03:57:07.200Z,21.30
2019-01-31T03:59:49.568Z,20.37
2019-01-31T04:02:33.602Z,32.00
2019-01-31T04:05:29.221Z,31.25
2019-01-31T04:08:00.501Z,28.07
2019-01-31T04:10:32.284Z,32.40
2019-01-31T04:13:03.764Z,26.25
2019-01-31T04:15:35.581Z,27.90
2019-01-31T04:18:07.478Z,27.35
2019-01-31T04:20:39.326Z,28.15
2019-01-31T04:23:11.013Z,29.42
2019-01-31T04:25:42.521Z,26.55
2019-01-31T04:28:14.280Z,30.65
2019-01-31T04:30:45.780Z,27.02
2019-01-31T04:33:17.127Z,27.40
2019-01-31T04:35:48.680Z,25.85
2019-01-31T04:38:20.394Z,25.30
2019-01-31T04:40:52.052Z,28.65
2019-01-31T04:43:23.363Z,24.05
2019-01-31T04:45:54.886Z,28.10
2019-01-31T04:48:26.355Z,26.12
2019-01-31T04:50:57.938Z,27.20
2019-01-31T04:53:29.756Z,45.67
2019-01-31T04:56:01.466Z,43.28
2019-01-31T04:58:33.060Z,34.03
2019-01-31T05:01:04.743Z,35.65
2019-01-31T05:03:36.436Z,34.63
2019-01-31T05:06:07.847Z,32.48
2019-01-31T05:08:39.543Z,31.23
2019-01-31T05:11:10.814Z,32.20
2019-01-31T05:13:42.368Z,34.48
2019-01-31T05:16:13.733Z,36.15
2019-01-31T05:18:45.368Z,37.78
2019-01-31T05:21:16.662Z,31.70
2019-01-31T05:23:48.432Z,33.23
2019-01-31T05:26:20.110Z,40.15
2019-01-31T05:28:51.537Z,38.40
2019-01-31T05:31:22.917Z,35.68
2019-01-31T05:33:54.557Z,44.75
2019-01-31T05:36:26.100Z,42.70
2019-01-31T05:38:57.845Z,42.38
2019-01-31T05:41:29.670Z,45.23
2019-01-31T05:44:01.427Z,49.45
2019-01-31T05:46:33.366Z,50.58
2019-01-31T05:49:04.915Z,52.53
2019-01-31T05:51:39.369Z,55.08
2019-01-31T05:54:09.961Z,52.70
2019-01-31T05:56:41.662Z,51.13
2019-01-31T05:59:13.342Z,51.68
2019-01-31T06:01:44.610Z,52.55
2019-01-31T06:04:16.307Z,52.83
2019-01-31T06:06:47.936Z,59.20
2019-01-31T06:09:19.415Z,52.03
2019-01-31T06:11:51.223Z,53.90
2019-01-31T06:14:22.979Z,49.80
2019-01-31T06:16:54.733Z,49.50
2019-01-31T06:19:26.220Z,46.98
2019-01-31T06:21:57.938Z,46.68
2019-01-31T06:24:29.676Z,51.42
2019-01-31T06:27:01.407Z,48.98
2019-01-31T06:29:33.157Z,54.05
2019-01-31T06:32:04.633Z,52.35
2019-01-31T06:34:36.272Z,55.25
2019-01-31T06:37:07.921Z,57.35
2019-01-31T06:39:39.523Z,56.75
2019-01-31T06:42:11.404Z,59.33
2019-01-31T06:44:43.140Z,53.20
2019-01-31T06:47:14.515Z,76.72
2019-01-31T06:49:46.115Z,93.70
2019-01-31T06:52:17.822Z,90.38
2019-01-31T06:54:49.231Z,87.88
2019-01-31T06:57:20.917Z,85.72
2019-01-31T06:59:52.308Z,76.37
2019-01-31T07:02:24.177Z,81.85
2019-01-31T07:04:55.920Z,97.30
2019-01-31T07:07:27.708Z,93.35
2019-01-31T07:09:59.169Z,101.90
2019-01-31T07:12:30.919Z,102.87
2019-01-31T07:15:02.468Z,123.90
2019-01-31T07:17:34.168Z,118.37
2019-01-31T07:20:06.586Z,130.03
2019-01-31T07:22:38.050Z,189.18
2019-01-31T07:25:14.369Z,160.70
2019-01-31T07:27:46.002Z,154.55
2019-01-31T07:30:18.259Z,129.87
2019-01-31T07:32:49.862Z,153.15
2019-01-31T07:35:21.794Z,151.47
2019-01-31T07:37:53.659Z,133.35
2019-01-31T07:40:25.241Z,139.15
2019-01-31T07:42:56.660Z,132.50
2019-01-31T07:45:30.010Z,117.45
2019-01-31T07:48:01.925Z,114.85
2019-01-31T07:50:33.455Z,118.85
2019-01-31T07:53:05.301Z,113.90
2019-01-31T07:55:37.196Z,129.00
2019-01-31T07:58:08.837Z,121.62
2019-01-31T08:00:40.685Z,118.42
2019-01-31T08:03:12.241Z,118.40
2019-01-31T08:05:44.323Z,114.35
2019-01-31T08:08:16.298Z,101.80
2019-01-31T08:10:48.311Z,96.95
2019-01-31T08:13:19.915Z,97.15
2019-01-31T08:15:51.578Z,104.72
2019-01-31T08:18:23.341Z,103.85
2019-01-31T08:20:54.937Z,102.40
2019-01-31T08:23:26.598Z,94.65
2019-01-31T08:25:58.380Z,96.70
2019-01-31T08:28:30.347Z,92.82
2019-01-31T08:31:02.105Z,84.45
2019-01-31T08:33:33.903Z,83.67
2019-01-31T08:36:05.503Z,96.02
2019-01-31T08:38:37.363Z,96.45
2019-01-31T08:41:08.759Z,85.47
2019-01-31T08:43:40.696Z,97.12
2019-01-31T08:46:12.329Z,90.65
2019-01-31T08:48:44.046Z,80.85
2019-01-31T08:51:15.884Z,84.37
2019-01-31T08:53:47.363Z,83.60
2019-01-31T08:56:19.047Z,82.25
2019-01-31T08:58:50.688Z,79.97
2019-01-31T09:01:23.636Z,73.15
2019-01-31T09:03:55.311Z,72.70
2019-01-31T09:06:26.836Z,74.82
2019-01-31T09:08:58.346Z,70.22
2019-01-31T09:11:30.074Z,63.25
2019-01-31T09:14:01.832Z,58.00
2019-01-31T09:16:33.463Z,50.70
2019-01-31T09:19:04.929Z,51.00
2019-01-31T09:21:49.471Z,40.63
2019-01-31T09:25:04.167Z,44.65
2019-01-31T09:28:11.965Z,44.67
2019-01-31T09:31:14.295Z,52.70
2019-01-31T09:34:17.188Z,44.35
2019-01-31T09:37:22.234Z,46.63
2019-01-31T09:40:31.432Z,48.02
2019-01-31T09:43:14.235Z,43.68
2019-01-31T09:46:26.410Z,34.27
2019-01-31T09:49:56.501Z,37.48
2019-01-31T09:52:59.725Z,37.17
2019-01-31T09:56:07.439Z,30.95
2019-01-31T09:59:28.273Z,30.45
2019-01-31T10:02:46.723Z,28.15
2019-01-31T10:06:00.277Z,28.70
2019-01-31T10:09:00.029Z,50.67
2019-01-31T10:12:18.087Z,59.27
2019-01-31T10:15:03.978Z,64.17
2019-01-31T10:18:12.512Z,71.33
2019-01-31T10:21:20.167Z,60.00
2019-01-31T10:24:34.061Z,73.97
2019-01-31T10:27:40.511Z,74.72
2019-01-31T10:31:16.319Z,66.90
2019-01-31T10:34:05.080Z,59.75
2019-01-31T10:37:23.094Z,64.22
2019-01-31T10:40:04.991Z,54.75
2019-01-31T10:43:32.051Z,51.30
2019-01-31T10:46:32.480Z,48.45
2019-01-31T10:50:05.965Z,75.28
2019-01-31T10:53:13.125Z,52.33
2019-01-31T10:56:21.161Z,63.25
2019-01-31T10:59:27.483Z,61.13
2019-01-31T11:02:37.021Z,45.00
2019-01-31T11:05:20.002Z,51.98
2019-01-31T11:08:28.012Z,47.80
2019-01-31T11:11:38.889Z,45.90
2019-01-31T11:14:57.514Z,31.30
2019-01-31T11:18:08.666Z,31.42
2019-01-31T11:21:23.486Z,29.87
2019-01-31T11:24:33.223Z,31.57
2019-01-31T11:27:39.867Z,29.60
2019-01-31T11:30:45.195Z,31.00
2019-01-31T11:33:52.658Z,28.25
2019-01-31T11:36:58.023Z,30.62
2019-01-31T11:40:08.878Z,31.50
2019-01-31T11:43:23.752Z,32.53
2019-01-31T11:46:21.096Z,33.13
2019-01-31T11:49:35.024Z,31.93
2019-01-31T11:52:37.638Z,32.48
2019-01-31T11:55:30.381Z,30.25
2019-01-31T11:58:27.158Z,34.00
2019-01-31T12:00:58.674Z,31.52
2019-01-31T12:03:30.265Z,32.05
2019-01-31T12:06:01.811Z,33.95
2019-01-31T12:08:33.433Z,34.90
2019-01-31T12:11:05.052Z,37.83
2019-01-31T12:13:36.495Z,36.00
2019-01-31T12:16:08.183Z,42.38
2019-01-31T12:18:39.753Z,36.28
2019-01-31T12:21:11.587Z,36.73
2019-01-31T12:23:43.345Z,34.15
2019-01-31T12:26:14.911Z,36.33
2019-01-31T12:28:46.591Z,36.75
2019-01-31T12:31:18.088Z,30.92
2019-01-31T12:33:49.608Z,33.25
2019-01-31T12:36:21.138Z,34.92
2019-01-31T12:38:54.896Z,30.00
2019-01-31T12:41:26.153Z,32.15
2019-01-31T12:43:57.652Z,36.15
2019-01-31T12:46:28.912Z,38.70
2019-01-31T12:49:00.426Z,44.60
2019-01-31T12:51:32.181Z,39.18
2019-01-31T12:54:03.757Z,40.65
2019-01-31T12:56:35.455Z,37.67
2019-01-31T12:59:07.237Z,39.48
2019-01-31T13:01:38.929Z,47.00
2019-01-31T13:04:10.739Z,44.33
2019-01-31T13:06:42.216Z,42.98
2019-01-31T13:09:15.194Z,43.85
2019-01-31T13:11:47.118Z,43.55
2019-01-31T13:14:18.568Z,42.40
2019-01-31T13:16:50.090Z,41.90
2019-01-31T13:19:21.620Z,42.20
2019-01-31T13:21:53.171Z,43.33
2019-01-31T13:24:24.830Z,42.60
2019-01-31T13:26:56.561Z,39.08
2019-01-31T13:29:27.902Z,41.33
2019-01-31T13:31:59.487Z,45.50
2019-01-31T13:34:31.037Z,39.35
2019-01-31T13:37:02.706Z,43.08
2019-01-31T13:39:34.279Z,39.48
2019-01-31T13:42:06.171Z,45.33
2019-01-31T13:44:37.748Z,38.98
2019-01-31T13:47:09.422Z,38.58
2019-01-31T13:49:41.003Z,35.90
2019-01-31T13:52:12.550Z,40.00
2019-01-31T13:54:44.091Z,37.35
2019-01-31T13:57:15.826Z,36.77
2019-01-31T13:59:47.249Z,36.03
2019-01-31T14:02:18.530Z,32.75
2019-01-31T14:04:52.070Z,38.75
2019-01-31T14:07:23.796Z,36.10
2019-01-31T14:09:55.591Z,37.60
2019-01-31T14:12:27.048Z,34.18
2019-01-31T14:14:58.715Z,28.07
2019-01-31T14:17:30.253Z,33.53
2019-01-31T14:20:02.045Z,27.05
2019-01-31T14:22:42.751Z,24.20
2019-01-31T14:25:07.581Z,26.75
2019-01-31T14:27:39.257Z,24.63
2019-01-31T14:30:26.851Z,24.32
2019-01-31T14:32:59.069Z,28.50
2019-01-31T14:35:30.857Z,24.57
2019-01-31T14:38:02.214Z,20.70
2019-01-31T14:40:33.968Z,20.08
2019-01-31T14:43:05.507Z,18.23
2019-01-31T14:45:37.079Z,16.25
2019-01-31T14:48:08.593Z,16.62
2019-01-31T14:50:40.095Z,15.23
2019-01-31T14:53:11.649Z,13.90
2019-01-31T14:55:43.036Z,13.28
2019-01-31T14:58:14.908Z,13.22
2019-01-31T15:00:46.713Z,15.50
2019-01-31T15:03:18.047Z,17.85
2019-01-31T15:05:49.557Z,15.00
2019-01-31T15:08:21.056Z,18.90
2019-01-31T15:10:52.801Z,15.43
2019-01-31T15:13:24.396Z,19.30
2019-01-31T15:15:56.024Z,13.00
2019-01-31T15:18:27.953Z,3.98
2019-01-31T15:20:59.261Z,2.52
2019-01-31T15:23:30.487Z,2.58
2019-01-31T15:26:02.307Z,4.22
2019-01-31T15:28:34.073Z,4.00
2019-01-31T15:31:05.506Z,3.72
2019-01-31T15:33:37.393Z,2.60
2019-01-31T15:36:09.041Z,2.65
2019-01-31T15:38:40.924Z,11.93
2019-01-31T15:41:12.668Z,5.80
2019-01-31T15:43:44.139Z,5.10
2019-01-31T15:46:18.021Z,3.60
2019-01-31T15:48:49.698Z,5.03
2019-01-31T15:51:21.427Z,5.55
2019-01-31T15:53:52.812Z,4.53
2019-01-31T15:56:24.711Z,3.83
2019-01-31T15:58:56.447Z,4.60
2019-01-31T16:01:28.333Z,3.50
2019-01-31T16:04:00.930Z,4.67
2019-01-31T16:06:33.175Z,3.15
2019-01-31T16:09:05.866Z,4.20
2019-01-31T16:11:37.850Z,3.95
2019-01-31T16:14:09.575Z,4.33
2019-01-31T16:16:41.866Z,5.05
2019-01-31T16:19:13.516Z,5.58
2019-01-31T16:21:45.169Z,5.95
2019-01-31T16:24:16.963Z,8.78
2019-01-31T16:26:48.753Z,8.65
2019-01-31T16:29:20.664Z,9.43
2019-01-31T16:31:52.141Z,8.15
2019-01-31T16:34:23.695Z,10.60
2019-01-31T16:36:55.216Z,5.40
2019-01-31T16:39:26.435Z,5.10
2019-01-31T16:41:57.910Z,7.67
2019-01-31T16:44:29.818Z,5.00
2019-01-31T16:47:01.361Z,6.10
2019-01-31T16:49:33.048Z,3.52
2019-01-31T16:52:05.092Z,3.60
2019-01-31T16:54:36.576Z,9.53
2019-01-31T16:57:08.130Z,6.53
2019-01-31T16:59:39.578Z,7.30
2019-01-31T17:02:11.216Z,10.10
2019-01-31T17:04:42.920Z,7.10
2019-01-31T17:07:14.624Z,8.25
2019-01-31T17:09:46.354Z,6.85
2019-01-31T17:12:18.010Z,8.55
2019-01-31T17:14:49.672Z,9.25
2019-01-31T17:17:21.288Z,7.87
2019-01-31T17:19:52.973Z,7.25
2019-01-31T17:22:24.744Z,7.92
2019-01-31T17:24:56.271Z,10.43
2019-01-31T17:27:27.798Z,9.48
2019-01-31T17:29:59.489Z,5.05
2019-01-31T17:32:31.175Z,5.00
2019-01-31T17:35:02.693Z,3.85
2019-01-31T17:37:34.024Z,8.15
2019-01-31T17:40:06.967Z,4.15
2019-01-31T17:42:38.483Z,7.00
2019-01-31T17:45:11.331Z,4.60
2019-01-31T17:47:42.992Z,5.35
2019-01-31T17:50:14.850Z,6.28
2019-01-31T17:52:46.674Z,6.25
2019-01-31T17:55:19.627Z,6.33
2019-01-31T17:57:51.475Z,4.83
2019-01-31T18:00:31.541Z,6.53
2019-01-31T18:03:03.915Z,5.90
2019-01-31T18:05:35.519Z,4.53
2019-01-31T18:08:09.348Z,4.87
2019-01-31T18:10:40.279Z,3.98
2019-01-31T18:13:12.090Z,5.17
2019-01-31T18:15:43.783Z,7.83
2019-01-31T18:18:15.405Z,5.95
2019-01-31T18:20:46.817Z,6.60
2019-01-31T18:23:19.634Z,8.43
2019-01-31T18:25:51.077Z,7.83
2019-01-31T18:28:22.415Z,6.10
2019-01-31T18:30:53.870Z,7.08
2019-01-31T18:33:27.470Z,7.28
2019-01-31T18:35:58.462Z,7.90
2019-01-31T18:38:30.706Z,7.92
2019-01-31T18:41:02.316Z,8.10
2019-01-31T18:43:33.621Z,7.97
2019-01-31T18:46:05.139Z,11.30
2019-01-31T18:48:36.571Z,13.25
2019-01-31T18:51:08.307Z,11.15
2019-01-31T18:53:40.137Z,18.48
2019-01-31T18:56:11.840Z,18.17
2019-01-31T18:58:44.008Z,17.23
2019-01-31T19:01:19.989Z,15.35
2019-01-31T19:04:03.536Z,14.53
2019-01-31T19:06:36.889Z,11.10
2019-01-31T19:09:09.953Z,11.90
2019-01-31T19:11:41.889Z,11.68
2019-01-31T19:14:14.481Z,12.75
2019-01-31T19:16:46.262Z,15.13
2019-01-31T19:19:17.983Z,13.95
2019-01-31T19:21:49.411Z,19.02
2019-01-31T19:24:21.173Z,16.60
2019-01-31T19:26:52.961Z,19.67
2019-01-31T19:29:29.018Z,14.28
2019-01-31T19:32:23.873Z,15.23
2019-01-31T19:35:02.397Z,14.33
2019-01-31T19:37:35.624Z,15.68
2019-01-31T19:40:08.922Z,15.78
2019-01-31T19:42:41.460Z,14.05
2019-01-31T19:45:31.905Z,12.95
2019-01-31T19:48:07.384Z,13.68
2019-01-31T19:50:38.895Z,12.93
2019-01-31T19:53:12.351Z,13.85
2019-01-31T19:55:43.916Z,12.95
2019-01-31T19:58:15.601Z,10.40
2019-01-31T20:00:51.450Z,12.00
2019-01-31T20:03:23.053Z,13.13
2019-01-31T20:05:54.722Z,13.32
2019-01-31T20:08:26.266Z,15.50
2019-01-31T20:10:58.013Z,15.32
2019-01-31T20:13:29.562Z,15.78
2019-01-31T20:16:01.100Z,19.57
2019-01-31T20:18:32.749Z,12.98
2019-01-31T20:21:04.735Z,16.30
2019-01-31T20:23:36.071Z,14.38
2019-01-31T20:26:07.840Z,12.85
2019-01-31T20:28:39.442Z,14.35
2019-01-31T20:31:11.070Z,11.97
2019-01-31T20:33:42.935Z,12.55
2019-01-31T20:36:14.625Z,11.95
2019-01-31T20:38:46.613Z,20.82
2019-01-31T20:41:18.282Z,12.95
2019-01-31T20:43:50.320Z,15.80
2019-01-31T20:46:21.940Z,16.97
2019-01-31T20:48:53.788Z,17.35
2019-01-31T20:51:25.398Z,17.95
2019-01-31T20:53:56.990Z,22.07
2019-01-31T20:56:28.364Z,20.77
2019-01-31T20:59:00.104Z,20.17
2019-01-31T21:01:31.579Z,16.35
2019-01-31T21:04:03.297Z,18.27
2019-01-31T21:06:41.484Z,18.77
2019-01-31T21:09:09.440Z,16.32
2019-01-31T21:11:42.868Z,16.70
2019-01-31T21:14:14.215Z,16.82
2019-01-31T21:16:52.506Z,17.12
2019-01-31T21:19:19.034Z,20.17
2019-01-31T21:21:50.485Z,18.50
2019-01-31T21:24:21.937Z,19.25
2019-01-31T21:26:53.384Z,18.57
2019-01-31T21:32:26.525Z,17.57
2019-01-31T21:35:09.347Z,20.80
2019-01-31T21:37:53.741Z,19.12
2019-01-31T21:40:41.600Z,17.05
2019-01-31T21:43:12.923Z,19.80
2019-01-31T21:45:44.423Z,17.52
2019-01-31T21:48:16.131Z,18.62
2019-01-31T21:50:47.928Z,17.05
2019-01-31T21:53:19.652Z,13.58
2019-01-31T21:55:51.108Z,17.40
2019-01-31T21:58:22.690Z,13.90
2019-01-31T22:00:54.012Z,10.45
2019-01-31T22:03:25.606Z,11.48
2019-01-31T22:05:56.930Z,14.33
2019-01-31T22:08:28.618Z,15.50
2019-01-31T22:11:00.057Z,14.98
2019-01-31T22:13:31.400Z,13.08
2019-01-31T22:16:02.737Z,14.65
2019-01-31T22:18:34.406Z,15.75
2019-01-31T22:21:06.117Z,19.45
2019-01-31T22:23:37.713Z,22.85
2019-01-31T22:26:09.156Z,19.27
2019-01-31T22:28:40.858Z,23.22
2019-01-31T22:31:12.404Z,22.10
2019-01-31T22:33:44.009Z,26.10
2019-01-31T22:36:15.799Z,26.27
2019-01-31T22:38:47.397Z,34.13
2019-01-31T22:41:19.016Z,30.97
2019-01-31T22:43:50.332Z,24.12
2019-01-31T22:46:21.965Z,21.20
2019-01-31T22:48:53.667Z,23.35
2019-01-31T22:51:25.304Z,19.65
2019-01-31T22:53:57.024Z,18.07
2019-01-31T22:56:28.600Z,23.42
2019-01-31T22:59:02.244Z,15.90
2019-01-31T23:01:50.493Z,15.50
2019-01-31T23:04:22.016Z,16.45
2019-01-31T23:06:53.894Z,15.48
2019-01-31T23:09:25.560Z,17.23
2019-01-31T23:11:57.333Z,16.55
2019-01-31T23:14:28.947Z,10.30
2019-01-31T23:17:00.586Z,11.30
2019-01-31T23:19:32.034Z,10.48
2019-01-31T23:22:03.798Z,13.90
2019-01-31T23:24:35.443Z,30.23
2019-01-31T23:27:07.126Z,16.60
2019-01-31T23:29:38.750Z,14.13
2019-01-31T23:32:10.599Z,16.30
2019-01-31T23:34:42.318Z,12.63
2019-01-31T23:37:13.936Z,13.98
2019-01-31T23:39:45.716Z,13.85
2019-01-31T23:42:17.342Z,12.00
2019-01-31T23:44:49.001Z,11.63
2019-01-31T23:47:20.876Z,10.15
2019-01-31T23:49:52.631Z,10.65
2019-01-31T23:52:23.863Z,9.05
2019-01-31T23:54:55.324Z,10.38
2019-01-31T23:57:27.323Z,8.80
2019-01-31T23:59:58.817Z,9.90
